Cumberland, Indiana
Current Conditions -  °F | °C
As of 5:35 PM on Thursday 20 Nov 2014 (Local Time) from KMQJ Reporting Station
Clear Clear  
Wind Chill: 14°   Ceiling: Unl
Heat Index: 27°   Visibility: 10mi
Dew Point:   Wind: 17mph
Humidity: 43%   Direction: 270°W
Pressure: 30.16"   Gusts: 22mph
Location:  39.7857°N, 85.9791°W
Report Text: KMQJ 202235Z AUTO 27015G19KT 10SM CLR M03/M14 A3016 RMK AO1
Loading
Personal Weather Stations






























Interactive Weather Map New forecast layout! Learn more

10-Day Weather Forecast

Advertisements
Track Severe Weather on mobile